Trenton, Canada
Current Conditions -  °F | °C
As of 8:00 PM on Sunday 21 Dec 2014 (Local Time) from CYTR Reporting Station
Few Clouds Few Clouds  
Wind Chill: 23°   Ceiling: Unl
Heat Index: 23°   Visibility: 15mi
Dew Point: 21°   Wind: 3mph
Humidity: 93%   Direction: 30°NNE
Pressure: 30.33"   Gusts: NA
Location:  44.11°N, 77.53°W
Report Text: CYTR 220100Z 03003KT 15SM FEW100 M05/M06 A3033 RMK AC1 FROIN SLP277
Loading
Personal Weather Stations






























Interactive Weather Map New forecast layout! Learn more

10-Day Weather Forecast

Advertisements
Track Severe Weather on mobile